METAR Data
IDs: Format: Raw Decoded Include TAF

Data at: 2024 UTC 17 Nov 2019

METAR for:PADU (Dutch Harbor/Madsen, AK, US)
Text:PADU 171956Z 21003KT 10SM SCT026 OVC100 06/02 A2956 RMK AO2 SLP015 T00560022
Temperature: 5.6°C ( 42°F)
Dewpoint: 2.2°C ( 36°F) [RH = 79%]
Pressure (altimeter):29.56 inches Hg (1001.1 mb) [Sea level pressure: 1001.5 mb]
Winds:from the SSW (210 degrees) at 3 MPH (3 knots; 1.5 m/s)
Visibility:10 or more sm (16+ km)
Ceiling:10000 feet AGL
Clouds: scattered clouds at 2600 feet AGL, overcast cloud deck at 10000 feet AGL
Text:PADU 171856Z 16006KT 10SM SCT036 BKN050 OVC085 05/01 A2957 RMK AO2 SLP018 T00500006
Temperature: 5.0°C ( 41°F)
Dewpoint: 0.6°C ( 33°F) [RH = 73%]
Pressure (altimeter):29.57 inches Hg (1001.4 mb) [Sea level pressure: 1001.8 mb]
Winds:from the SSE (160 degrees) at 7 MPH (6 knots; 3.1 m/s)
Visibility:10 or more sm (16+ km)
Ceiling:5000 feet AGL
Clouds: scattered clouds at 3600 feet AGL, broken clouds at 5000 feet AGL, overcast cloud deck at 8500 feet AGL
Text:PADU 171756Z 16006KT 10SM BKN032 BKN050 BKN090 05/M01 A2957 RMK AO2 SLP019 T00501011 10050 20033 58015
Temperature: 5.0°C ( 41°F)
Dewpoint: -1.1°C ( 30°F) [RH = 65%]
Pressure (altimeter):29.57 inches Hg (1001.4 mb) [Sea level pressure: 1001.9 mb]
Winds:from the SSE (160 degrees) at 7 MPH (6 knots; 3.1 m/s)
Visibility:10 or more sm (16+ km)
Ceiling:3200 feet AGL
Clouds: broken clouds at 3200 feet AGL, broken clouds at 5000 feet AGL, broken clouds at 9000 feet AGL
Text:PADU 171656Z 00000KT 10SM FEW034 OVC075 04/M01 A2959 RMK AO2 SLP025 T00441011
Temperature: 4.4°C ( 40°F)
Dewpoint: -1.1°C ( 30°F) [RH = 67%]
Pressure (altimeter):29.59 inches Hg (1002.1 mb) [Sea level pressure: 1002.5 mb]
Winds:calm
Visibility:10 or more sm (16+ km)
Ceiling:7500 feet AGL
Clouds: few clouds at 3400 feet AGL, overcast cloud deck at 7500 feet AGL
Text:PADU 171556Z 20005KT 10SM FEW033 04/M01 A2961 RMK AO2 SLP032 T00441011
Temperature: 4.4°C ( 40°F)
Dewpoint: -1.1°C ( 30°F) [RH = 67%]
Pressure (altimeter):29.61 inches Hg (1002.8 mb) [Sea level pressure: 1003.2 mb]
Winds:from the SSW (200 degrees) at 6 MPH (5 knots; 2.6 m/s)
Visibility:10 or more sm (16+ km)
Ceiling:at least 12,000 feet AGL
Clouds: few clouds at 3300 feet AGL
Text:PADU 171456Z AUTO 16007KT 10SM CLR 03/M01 A2962 RMK AO2 SLP034 T00331011 51004
Temperature: 3.3°C ( 38°F)
Dewpoint: -1.1°C ( 30°F) [RH = 73%]
Pressure (altimeter):29.62 inches Hg (1003.1 mb) [Sea level pressure: 1003.4 mb]
Winds:from the SSE (160 degrees) at 8 MPH (7 knots; 3.6 m/s)
Visibility:10 or more sm (16+ km)
Ceiling:at least 12,000 feet AGL
Clouds:sky clear below 12,000 feet AGL
QC Flag:automated observation with no human augmentation

TAF for:PADU (Dutch Harbor/Madsen, AK, US) issued at 1738 UTC 17 Nov 2019
Text:PADU 171738Z 1718/1818 16006KT P6SM -SHRA FEW035 OVC070
Forecast period:1800 to 2100 UTC 17 November 2019
Forecast type:FROM: standard forecast or significant change
Winds:from the SSE (160 degrees) at 7 MPH (6 knots; 3.1 m/s)
Visibility:6 or more sm (10+ km)
Ceiling:7000 feet AGL
Clouds: few clouds at 3500 feet AGL, overcast cloud deck at 7000 feet AGL
Weather:-SHRA (light rain showers)
Text:FM172100 15008KT P6SM -SHRA FEW007 SCT015 BKN025
Forecast period:2100 to 2300 UTC 17 November 2019
Forecast type:FROM: standard forecast or significant change
Winds:from the SSE (150 degrees) at 9 MPH (8 knots; 4.1 m/s)
Visibility:6 or more sm (10+ km)
Ceiling:2500 feet AGL
Clouds: few clouds at 700 feet AGL, scattered clouds at 1500 feet AGL, broken clouds at 2500 feet AGL
Weather:-SHRA (light rain showers)
Text:FM172300 14015G23KT 5SM -RA BR SCT007 OVC015
Forecast period:2300 UTC 17 November 2019 to 0800 UTC 18 November 2019
Forecast type:FROM: standard forecast or significant change
Winds:from the SE (140 degrees) at 17 MPH (15 knots; 7.7 m/s) gusting to 26 MPH (23 knots; 11.8 m/s)
Visibility: 5 sm ( 8 km)
Ceiling:1500 feet AGL
Clouds: scattered clouds at 700 feet AGL, overcast cloud deck at 1500 feet AGL
Weather:-RA BR (light rain, mist)
Text:FM180800 09011G19KT 4SM -RA BR FEW003 SCT007 OVC015
Forecast period:0800 to 1300 UTC 18 November 2019
Forecast type:FROM: standard forecast or significant change
Winds:from the E (90 degrees) at 13 MPH (11 knots; 5.7 m/s) gusting to 22 MPH (19 knots; 9.8 m/s)
Visibility: 4 sm ( 6 km)
Ceiling:1500 feet AGL
Clouds: few clouds at 300 feet AGL, scattered clouds at 700 feet AGL, overcast cloud deck at 1500 feet AGL
Weather:-RA BR (light rain, mist)
Text:FM181300 VRB06KT P6SM -SHRA FEW007 SCT015 OVC025
Forecast period:1300 to 1800 UTC 18 November 2019
Forecast type:FROM: standard forecast or significant change
Winds:variable direction winds at 7 MPH (6 knots; 3.1 m/s)
Visibility:6 or more sm (10+ km)
Ceiling:2500 feet AGL
Clouds: few clouds at 700 feet AGL, scattered clouds at 1500 feet AGL, overcast cloud deck at 2500 feet AGL
Weather:-SHRA (light rain showers)